Huvudsida
METAR-TAF:

METAR-TAF

Flygplatser :

Röros, Norge

Røros flygplats

latitud: 62-35N, longitud: 011-21E, höjd: 626 m

Aktuellt väderrapport

Denna rapport gjordes för 12 minuter sedan, klockan 03:20 UTC
Vind 1 kt varierande vindriktning
Temperatur -15°C
Fuktighet 85%
Tryck 993 hPa
Sikt: 2800 m
lätt snö

METAR: ENRO 190320Z AUTO VRB01KT 2800NDV -SN BKN003/// OVC005/// M15/M17 Q0993

Tid: 04:32 (03:32 UTC)

Väderprognos

Denna rapport gjordes för 1 timme och 32 minuter sedan, klockan 02:00 UTC
Prognos gäller från 19 kl. 03 UTC till 19 kl. 12 UTC
Vind 8 kt från sydost
Sikt 10 km eller mer
Få moln på en höjd av 1000 ft
Brutna moln på en höjd av 3000 ft
lätt snö

TAF: ENRO 190200Z 1903/1912 13008KT 9999 -SN FEW010 BKN030

Aktuella väderrapporter och prognoser från 4000 flygplatser (METAR- och TAF-rapporter).

De tillgängliga stationerna syns som gula och röda prickar på kartan.

För musen över prickarna för att se namnen på stationerna.

Klicka sedan för att få väderrapporter och prognoser.

För att ändra kartan: Klicka på de gröna knapparna med ett svart kors på för att zooma in; den gröna knappen med ett streck på för att zooma ut; eller på de gröna pilarna för angränsande kartor.


METAR-TAF: